createdAt,value
2022-09-14T00:01:26.848Z,15.69
2022-09-14T00:04:01.472Z,15.69
2022-09-14T00:06:30.135Z,15.69
2022-09-14T00:09:00.750Z,15.69
2022-09-14T00:11:31.244Z,15.64
2022-09-14T00:13:59.648Z,15.62
2022-09-14T00:16:33.255Z,15.60
2022-09-14T00:19:06.655Z,15.60
2022-09-14T00:21:36.178Z,15.60
2022-09-14T00:24:05.275Z,15.61
2022-09-14T00:26:32.678Z,15.63
2022-09-14T00:29:04.601Z,15.63
2022-09-14T00:31:38.269Z,15.64
2022-09-14T00:34:08.102Z,15.68
2022-09-14T00:36:40.270Z,15.69
2022-09-14T00:39:08.734Z,15.74
2022-09-14T00:41:43.233Z,15.75
2022-09-14T00:44:10.671Z,15.79
2022-09-14T00:46:41.053Z,15.79
2022-09-14T00:49:12.609Z,15.78
2022-09-14T00:51:47.928Z,15.77
2022-09-14T00:54:15.487Z,15.76
2022-09-14T00:56:42.715Z,15.74
2022-09-14T00:59:17.492Z,15.69
2022-09-14T01:01:45.485Z,15.65
2022-09-14T01:04:12.653Z,15.65
2022-09-14T01:07:17.171Z,15.67
2022-09-14T01:10:08.498Z,15.66
2022-09-14T01:12:47.993Z,15.67
2022-09-14T01:15:21.684Z,15.63
2022-09-14T01:18:08.077Z,15.64
2022-09-14T01:20:44.590Z,15.61
2022-09-14T01:23:22.546Z,15.61
2022-09-14T01:26:12.075Z,15.64
2022-09-14T01:29:02.990Z,15.64
2022-09-14T01:31:47.798Z,15.65
2022-09-14T01:34:31.930Z,15.63
2022-09-14T01:37:13.344Z,15.59
2022-09-14T01:39:45.701Z,15.58
2022-09-14T01:42:13.539Z,15.59
2022-09-14T01:44:46.777Z,15.58
2022-09-14T01:47:20.509Z,15.58
2022-09-14T01:49:52.597Z,15.62
2022-09-14T01:52:25.870Z,15.59
2022-09-14T01:55:00.164Z,15.61
2022-09-14T01:57:37.068Z,15.65
2022-09-14T02:00:10.821Z,15.65
2022-09-14T02:02:47.058Z,15.62
2022-09-14T02:05:26.190Z,15.61
2022-09-14T02:07:54.209Z,15.67
2022-09-14T02:10:22.805Z,15.68
2022-09-14T02:12:52.012Z,15.61
2022-09-14T02:15:20.159Z,15.55
2022-09-14T02:17:48.114Z,15.52
2022-09-14T02:20:21.937Z,15.56
2022-09-14T02:22:51.632Z,15.39
2022-09-14T02:25:20.312Z,15.40
2022-09-14T02:27:48.838Z,15.34
2022-09-14T02:30:17.731Z,15.28
2022-09-14T02:33:08.426Z,15.25
2022-09-14T02:35:47.123Z,15.15
2022-09-14T02:38:29.350Z,15.10
2022-09-14T02:41:15.145Z,15.15
2022-09-14T02:44:18.544Z,15.17
2022-09-14T02:47:24.028Z,15.16
2022-09-14T02:50:07.988Z,15.11
2022-09-14T02:52:57.380Z,15.13
2022-09-14T02:55:29.392Z,15.18
2022-09-14T02:58:08.104Z,15.16
2022-09-14T03:00:38.738Z,15.30
2022-09-14T03:03:08.503Z,15.16
2022-09-14T03:05:36.377Z,15.05
2022-09-14T03:08:04.346Z,15.03
2022-09-14T03:10:32.466Z,14.92
2022-09-14T03:13:00.246Z,14.89
2022-09-14T03:15:28.401Z,14.89
2022-09-14T03:17:56.019Z,14.87
2022-09-14T03:20:29.258Z,14.83
2022-09-14T03:22:58.549Z,14.88
2022-09-14T03:25:26.637Z,14.89
2022-09-14T03:27:56.274Z,14.77
2022-09-14T03:30:24.210Z,14.79
2022-09-14T03:32:51.322Z,14.85
2022-09-14T03:35:19.598Z,14.91
2022-09-14T03:37:47.167Z,14.83
2022-09-14T03:40:21.339Z,14.80
2022-09-14T03:42:50.958Z,14.79
2022-09-14T03:45:20.053Z,14.83
2022-09-14T03:47:47.830Z,14.77
2022-09-14T03:50:15.650Z,14.79
2022-09-14T03:52:42.815Z,14.82
2022-09-14T03:55:10.775Z,14.84
2022-09-14T03:57:38.262Z,14.89
2022-09-14T04:00:07.317Z,14.91
2022-09-14T04:02:39.201Z,14.87
2022-09-14T04:05:07.244Z,14.92
2022-09-14T04:07:34.423Z,14.96
2022-09-14T04:10:01.580Z,15.03
2022-09-14T04:12:28.740Z,15.07
2022-09-14T04:14:55.806Z,15.07
2022-09-14T04:17:25.813Z,15.05
2022-09-14T04:19:52.880Z,15.05
2022-09-14T04:22:20.008Z,15.08
2022-09-14T04:24:47.792Z,15.08
2022-09-14T04:27:14.897Z,15.13
2022-09-14T04:29:42.401Z,15.16
2022-09-14T04:32:09.542Z,15.19
2022-09-14T04:34:36.757Z,15.21
2022-09-14T04:37:04.424Z,15.19
2022-09-14T04:39:31.515Z,15.15
2022-09-14T04:41:58.548Z,15.17
2022-09-14T04:44:25.696Z,15.17
2022-09-14T04:46:53.100Z,15.18
2022-09-14T04:49:21.565Z,15.18
2022-09-14T04:51:48.901Z,15.20
2022-09-14T04:54:17.820Z,15.20
2022-09-14T04:56:45.975Z,15.20
2022-09-14T04:59:15.332Z,15.19
2022-09-14T05:01:44.999Z,15.22
2022-09-14T05:04:12.543Z,15.23
2022-09-14T05:06:42.176Z,15.19
2022-09-14T05:09:14.741Z,15.19
2022-09-14T05:11:42.028Z,15.19
2022-09-14T05:14:13.125Z,15.19
2022-09-14T05:16:42.169Z,15.14
2022-09-14T05:19:14.187Z,15.16
2022-09-14T05:21:41.612Z,15.23
2022-09-14T05:24:17.479Z,15.18
2022-09-14T05:26:45.603Z,15.16
2022-09-14T05:29:14.921Z,15.18
2022-09-14T05:31:42.393Z,15.15
2022-09-14T05:34:10.802Z,15.18
2022-09-14T05:36:39.560Z,15.16
2022-09-14T05:39:07.959Z,15.09
2022-09-14T05:41:35.621Z,15.12
2022-09-14T05:44:03.153Z,15.14
2022-09-14T05:46:30.388Z,15.18
2022-09-14T05:48:57.541Z,15.15
2022-09-14T05:51:27.253Z,15.28
2022-09-14T05:53:57.089Z,15.22
2022-09-14T05:56:27.217Z,15.26
2022-09-14T05:58:54.846Z,15.23
2022-09-14T06:01:24.593Z,15.28
2022-09-14T06:03:56.964Z,15.39
2022-09-14T06:06:24.511Z,15.37
2022-09-14T06:08:54.108Z,15.41
2022-09-14T06:11:24.393Z,15.45
2022-09-14T06:13:51.707Z,15.45
2022-09-14T06:16:20.622Z,15.40
2022-09-14T06:18:48.882Z,15.30
2022-09-14T06:21:19.277Z,15.28
2022-09-14T06:23:47.984Z,15.28
2022-09-14T06:26:15.805Z,15.30
2022-09-14T06:28:42.952Z,15.33
2022-09-14T06:31:13.020Z,15.29
2022-09-14T06:33:44.919Z,15.39
2022-09-14T06:36:14.504Z,15.38
2022-09-14T06:38:42.964Z,15.35
2022-09-14T06:41:12.273Z,15.30
2022-09-14T06:43:40.998Z,15.32
2022-09-14T06:46:22.229Z,15.31
2022-09-14T06:48:52.630Z,15.27
2022-09-14T06:51:22.257Z,15.25
2022-09-14T06:53:50.036Z,15.25
2022-09-14T06:56:18.125Z,15.25
2022-09-14T06:58:45.544Z,15.23
2022-09-14T07:01:15.306Z,15.19
2022-09-14T07:03:43.937Z,15.19
2022-09-14T07:06:14.651Z,15.24
2022-09-14T07:08:41.797Z,15.24
2022-09-14T07:11:11.809Z,15.27
2022-09-14T07:13:41.228Z,15.32
2022-09-14T07:16:08.840Z,15.32
2022-09-14T07:18:36.650Z,15.35
2022-09-14T07:21:09.742Z,15.38
2022-09-14T07:23:39.049Z,15.40
2022-09-14T07:26:13.691Z,15.38
2022-09-14T07:28:42.478Z,15.38
2022-09-14T07:31:17.783Z,15.44
2022-09-14T07:33:46.007Z,15.43
2022-09-14T07:36:14.408Z,15.42
2022-09-14T07:38:52.265Z,15.41
2022-09-14T07:41:21.588Z,15.41
2022-09-14T07:43:53.982Z,15.39
2022-09-14T07:46:21.956Z,15.34
2022-09-14T07:48:54.218Z,15.38
2022-09-14T07:51:22.200Z,15.38
2022-09-14T07:53:50.285Z,15.42
2022-09-14T07:56:17.677Z,15.44
2022-09-14T07:58:45.507Z,15.49
2022-09-14T08:01:14.132Z,15.53
2022-09-14T08:03:43.462Z,15.56
2022-09-14T08:06:16.108Z,15.60
2022-09-14T08:08:45.047Z,15.64
2022-09-14T08:11:15.161Z,15.74
2022-09-14T08:13:44.997Z,15.72
2022-09-14T08:16:13.722Z,15.77
2022-09-14T08:18:42.186Z,15.74
2022-09-14T08:21:12.536Z,15.75
2022-09-14T08:23:41.043Z,15.75
2022-09-14T08:26:17.322Z,15.79
2022-09-14T08:28:45.491Z,15.81
2022-09-14T08:31:16.802Z,15.68
2022-09-14T08:33:46.554Z,15.59
2022-09-14T08:36:16.354Z,15.59
2022-09-14T08:38:43.799Z,15.52
2022-09-14T08:41:32.556Z,15.50
2022-09-14T08:44:04.533Z,15.52
2022-09-14T08:46:35.469Z,15.53
2022-09-14T08:49:10.882Z,15.54
2022-09-14T08:51:37.955Z,15.60
2022-09-14T08:54:04.993Z,15.60
2022-09-14T08:56:34.240Z,15.61
2022-09-14T08:59:42.429Z,15.58
2022-09-14T09:02:25.859Z,15.63
2022-09-14T09:05:15.102Z,15.66
2022-09-14T09:07:52.116Z,15.58
2022-09-14T09:10:20.671Z,15.55
2022-09-14T09:12:54.215Z,15.61
2022-09-14T09:15:25.584Z,15.59
2022-09-14T09:18:01.249Z,15.59
2022-09-14T09:20:33.054Z,15.57
2022-09-14T09:23:23.529Z,15.54
2022-09-14T09:26:09.586Z,15.57
2022-09-14T09:28:45.797Z,15.55
2022-09-14T09:31:15.042Z,15.55
2022-09-14T09:34:06.449Z,15.58
2022-09-14T09:36:40.566Z,15.61
2022-09-14T09:39:07.936Z,15.63
2022-09-14T09:41:51.117Z,15.72
2022-09-14T09:44:18.512Z,15.70
2022-09-14T09:46:50.266Z,15.71
2022-09-14T09:49:33.191Z,15.75
2022-09-14T09:52:17.353Z,15.88
2022-09-14T09:54:51.422Z,15.92
2022-09-14T09:57:33.661Z,15.92
2022-09-14T10:00:11.407Z,15.88
2022-09-14T10:02:40.454Z,15.86
2022-09-14T10:05:10.940Z,15.89
2022-09-14T10:07:49.197Z,15.84
2022-09-14T10:10:23.910Z,15.89
2022-09-14T10:12:53.891Z,15.85
2022-09-14T10:15:29.536Z,15.79
2022-09-14T10:18:04.373Z,15.88
2022-09-14T10:20:31.817Z,15.87
2022-09-14T10:23:20.646Z,16.00
2022-09-14T10:25:53.715Z,15.96
2022-09-14T10:28:23.639Z,16.09
2022-09-14T10:31:00.678Z,16.16
2022-09-14T10:33:29.487Z,16.09
2022-09-14T10:35:56.533Z,16.16
2022-09-14T10:38:37.053Z,16.20
2022-09-14T10:41:22.898Z,16.13
2022-09-14T10:44:22.599Z,16.10
2022-09-14T10:47:05.115Z,16.07
2022-09-14T10:49:51.813Z,16.03
2022-09-14T10:52:38.403Z,15.98
2022-09-14T10:55:34.447Z,15.92
2022-09-14T10:58:48.953Z,15.81
2022-09-14T11:01:41.002Z,15.79
2022-09-14T11:04:33.264Z,15.81
2022-09-14T11:07:28.853Z,15.85
2022-09-14T11:10:21.203Z,15.86
2022-09-14T11:13:31.307Z,15.87
2022-09-14T11:16:20.012Z,15.90
2022-09-14T11:19:02.105Z,15.88
2022-09-14T11:21:54.030Z,15.90
2022-09-14T11:24:36.444Z,15.95
2022-09-14T11:27:09.599Z,16.05
2022-09-14T11:29:47.042Z,15.98
2022-09-14T11:32:28.590Z,16.00
2022-09-14T11:35:15.761Z,15.98
2022-09-14T11:38:03.368Z,16.00
2022-09-14T11:40:40.434Z,15.97
2022-09-14T11:43:16.715Z,15.96
2022-09-14T11:45:52.469Z,15.97
2022-09-14T11:49:07.300Z,16.00
2022-09-14T11:51:44.761Z,16.00
2022-09-14T11:54:22.474Z,16.01
2022-09-14T11:56:50.887Z,16.03
2022-09-14T11:59:34.482Z,16.03
2022-09-14T12:02:23.458Z,15.99
2022-09-14T12:05:16.969Z,16.12
2022-09-14T12:07:45.676Z,16.16
2022-09-14T12:10:16.082Z,16.06
2022-09-14T12:13:03.887Z,16.04
2022-09-14T12:15:31.223Z,16.04
2022-09-14T12:18:08.315Z,16.05
2022-09-14T12:20:41.549Z,16.18
2022-09-14T12:23:23.440Z,16.17
2022-09-14T12:26:10.068Z,16.16
2022-09-14T12:28:40.130Z,16.07
2022-09-14T12:31:12.410Z,16.02
2022-09-14T12:33:39.527Z,16.15
2022-09-14T12:36:32.776Z,16.12
2022-09-14T12:39:00.050Z,16.06
2022-09-14T12:41:28.017Z,16.10
2022-09-14T12:43:55.568Z,16.18
2022-09-14T12:46:22.718Z,16.20
2022-09-14T12:48:51.154Z,16.23
2022-09-14T12:51:27.279Z,16.22
2022-09-14T12:54:06.557Z,16.25
2022-09-14T12:56:37.037Z,16.32
2022-09-14T12:59:16.313Z,16.33
2022-09-14T13:02:13.556Z,16.41
2022-09-14T13:04:42.135Z,16.45
2022-09-14T13:07:18.229Z,16.47
2022-09-14T13:09:47.957Z,16.58
2022-09-14T13:12:24.023Z,16.48
2022-09-14T13:14:59.191Z,16.46
2022-09-14T13:17:26.336Z,16.45
2022-09-14T13:20:02.940Z,16.44
2022-09-14T13:22:32.910Z,16.38
2022-09-14T13:25:03.909Z,16.36
2022-09-14T13:27:37.194Z,16.26
2022-09-14T13:30:19.917Z,16.20
2022-09-14T13:32:50.707Z,16.18
2022-09-14T13:35:27.691Z,16.22
2022-09-14T13:37:55.144Z,16.24
2022-09-14T13:40:25.168Z,16.29
2022-09-14T13:42:53.077Z,16.30
2022-09-14T13:45:20.828Z,16.22
2022-09-14T13:47:48.612Z,16.25
2022-09-14T13:50:16.308Z,16.20
2022-09-14T13:53:01.350Z,16.23
2022-09-14T13:55:35.522Z,16.24
2022-09-14T13:58:11.713Z,16.24
2022-09-14T14:00:59.165Z,16.23
2022-09-14T14:03:28.627Z,16.21
2022-09-14T14:05:56.256Z,16.26
2022-09-14T14:08:28.250Z,16.21
2022-09-14T14:10:56.015Z,16.19
2022-09-14T14:13:32.125Z,16.19
2022-09-14T14:16:19.540Z,16.14
2022-09-14T14:18:57.288Z,15.99
2022-09-14T14:21:27.765Z,15.94
2022-09-14T14:24:17.845Z,15.83
2022-09-14T14:26:50.356Z,15.74
2022-09-14T14:29:17.788Z,15.75
2022-09-14T14:31:45.473Z,15.75
2022-09-14T14:34:22.202Z,15.86
2022-09-14T14:36:50.335Z,15.76
2022-09-14T14:39:20.665Z,15.70
2022-09-14T14:41:49.053Z,15.64
2022-09-14T14:44:47.644Z,15.62
2022-09-14T14:47:17.306Z,15.66
2022-09-14T14:49:44.506Z,15.63
2022-09-14T14:52:11.783Z,15.60
2022-09-14T14:54:41.058Z,15.57
2022-09-14T14:57:08.908Z,15.56
2022-09-14T14:59:36.401Z,15.58
2022-09-14T15:02:04.871Z,15.64
2022-09-14T15:04:32.070Z,15.62
2022-09-14T15:06:59.568Z,15.59
2022-09-14T15:09:29.635Z,15.59
2022-09-14T15:11:56.745Z,15.62
2022-09-14T15:14:27.177Z,15.61
2022-09-14T15:16:59.944Z,15.64
2022-09-14T15:19:27.651Z,15.62
2022-09-14T15:22:00.064Z,15.63
2022-09-14T15:24:28.762Z,15.64
2022-09-14T15:26:57.662Z,15.61
2022-09-14T15:29:24.624Z,15.61
2022-09-14T15:31:51.854Z,15.61
2022-09-14T15:34:20.449Z,15.59
2022-09-14T15:36:51.132Z,15.59
2022-09-14T15:39:22.990Z,15.59
2022-09-14T15:41:50.650Z,15.55
2022-09-14T15:44:17.901Z,15.56
2022-09-14T15:46:46.850Z,15.57
2022-09-14T15:49:20.471Z,15.58
2022-09-14T15:51:50.463Z,15.63
2022-09-14T15:54:23.719Z,15.57
2022-09-14T15:56:54.899Z,15.53
2022-09-14T15:59:22.931Z,15.47
2022-09-14T16:01:50.369Z,15.45
2022-09-14T16:04:18.641Z,15.44
2022-09-14T16:06:46.882Z,15.39
2022-09-14T16:09:15.964Z,15.36
2022-09-14T16:11:43.156Z,15.32
2022-09-14T16:14:11.139Z,15.25
2022-09-14T16:16:38.832Z,15.24
2022-09-14T16:19:13.820Z,15.20
2022-09-14T16:21:42.348Z,15.22
2022-09-14T16:24:16.564Z,15.17
2022-09-14T16:26:44.806Z,15.21
2022-09-14T16:29:15.672Z,15.20
2022-09-14T16:31:44.488Z,15.21
2022-09-14T16:34:26.716Z,15.16
2022-09-14T16:36:54.717Z,15.16
2022-09-14T16:39:25.004Z,15.27
2022-09-14T16:41:54.135Z,15.21
2022-09-14T16:44:26.670Z,15.20
2022-09-14T16:46:57.549Z,15.12
2022-09-14T16:49:27.844Z,15.04
2022-09-14T16:51:56.940Z,15.04
2022-09-14T16:54:25.955Z,15.04
2022-09-14T16:56:58.147Z,14.98
2022-09-14T16:59:25.947Z,14.94
2022-09-14T17:01:55.242Z,14.93
2022-09-14T17:04:24.094Z,14.90
2022-09-14T17:06:53.331Z,14.80
2022-09-14T17:09:28.475Z,14.85
2022-09-14T17:11:57.718Z,14.81
2022-09-14T17:14:30.773Z,14.78
2022-09-14T17:16:58.708Z,14.76
2022-09-14T17:19:27.148Z,14.78
2022-09-14T17:21:54.813Z,14.74
2022-09-14T17:24:22.597Z,14.75
2022-09-14T17:26:50.312Z,14.71
2022-09-14T17:29:17.463Z,14.70
2022-09-14T17:31:45.117Z,14.77
2022-09-14T17:34:15.959Z,14.74
2022-09-14T17:36:43.567Z,14.73
2022-09-14T17:39:12.209Z,14.82
2022-09-14T17:41:41.195Z,14.87
2022-09-14T17:44:11.797Z,14.89
2022-09-14T17:46:47.127Z,14.79
2022-09-14T17:49:20.451Z,14.75
2022-09-14T17:51:48.170Z,14.75
2022-09-14T17:54:15.964Z,14.63
2022-09-14T17:56:43.550Z,14.64
2022-09-14T17:59:14.068Z,14.68
2022-09-14T18:01:41.196Z,14.70
2022-09-14T18:04:13.441Z,14.64
2022-09-14T18:06:44.386Z,14.62
2022-09-14T18:09:20.585Z,14.62
2022-09-14T18:11:49.061Z,14.63
2022-09-14T18:14:17.009Z,14.63
2022-09-14T18:16:45.250Z,14.60
2022-09-14T18:19:14.032Z,14.65
2022-09-14T18:21:42.661Z,14.56
2022-09-14T18:24:11.376Z,14.57
2022-09-14T18:26:41.278Z,14.58
2022-09-14T18:29:08.374Z,14.56
2022-09-14T18:31:38.292Z,14.59
2022-09-14T18:34:05.686Z,14.60
2022-09-14T18:36:32.950Z,14.51
2022-09-14T18:39:01.003Z,14.50
2022-09-14T18:41:31.456Z,14.47
2022-09-14T18:43:59.144Z,14.53
2022-09-14T18:46:28.263Z,14.48
2022-09-14T18:48:59.063Z,14.47
2022-09-14T18:51:28.069Z,14.38
2022-09-14T18:54:01.100Z,14.43
2022-09-14T18:56:29.176Z,14.42
2022-09-14T18:58:56.449Z,14.40
2022-09-14T19:01:23.715Z,14.33
2022-09-14T19:03:52.531Z,14.39
2022-09-14T19:06:20.253Z,14.35
2022-09-14T19:08:47.439Z,14.30
2022-09-14T19:11:23.755Z,14.35
2022-09-14T19:14:06.356Z,14.32
2022-09-14T19:16:35.813Z,14.27
2022-09-14T19:19:06.479Z,14.30
2022-09-14T19:21:33.926Z,14.28
2022-09-14T19:24:08.396Z,14.22
2022-09-14T19:26:55.481Z,14.10
2022-09-14T19:29:24.074Z,14.13
2022-09-14T19:31:52.944Z,14.18
2022-09-14T19:34:22.930Z,14.15
2022-09-14T19:36:51.162Z,14.11
2022-09-14T19:39:18.773Z,14.18
2022-09-14T19:41:46.391Z,14.18
2022-09-14T19:44:13.823Z,14.27
2022-09-14T19:46:54.705Z,14.10
2022-09-14T19:49:25.588Z,14.08
2022-09-14T19:51:53.622Z,14.08
2022-09-14T19:54:21.014Z,14.19
2022-09-14T19:56:48.538Z,14.26
2022-09-14T19:59:16.751Z,14.17
2022-09-14T20:01:44.669Z,14.11
2022-09-14T20:04:11.915Z,14.08
2022-09-14T20:06:43.582Z,14.08
2022-09-14T20:09:19.047Z,14.12
2022-09-14T20:11:48.182Z,14.03
2022-09-14T20:14:18.150Z,14.05
2022-09-14T20:16:48.251Z,14.06
2022-09-14T20:19:19.018Z,14.10
2022-09-14T20:21:47.779Z,14.08
2022-09-14T20:24:18.921Z,14.02
2022-09-14T20:26:47.930Z,13.98
2022-09-14T20:29:16.382Z,14.05
2022-09-14T20:31:44.341Z,14.01
2022-09-14T20:34:11.856Z,13.95
2022-09-14T20:36:39.759Z,13.99
2022-09-14T20:39:07.191Z,13.99
2022-09-14T20:41:36.204Z,14.03
2022-09-14T20:44:04.918Z,13.99
2022-09-14T20:46:36.502Z,13.95
2022-09-14T20:49:05.812Z,13.92
2022-09-14T20:51:34.884Z,13.94
2022-09-14T20:54:02.325Z,13.92
2022-09-14T20:56:32.134Z,13.92
2022-09-14T20:59:01.367Z,13.96
2022-09-14T21:01:31.955Z,13.92
2022-09-14T21:04:10.073Z,13.96
2022-09-14T21:06:45.426Z,13.91
2022-09-14T21:09:14.606Z,13.80
2022-09-14T21:11:42.373Z,13.82
2022-09-14T21:14:09.626Z,13.74
2022-09-14T21:16:44.347Z,13.75
2022-09-14T21:19:19.573Z,13.63
2022-09-14T21:21:48.522Z,13.59
2022-09-14T21:24:17.117Z,13.68
2022-09-14T21:26:44.986Z,13.64
2022-09-14T21:29:14.390Z,13.52
2022-09-14T21:31:42.162Z,13.48
2022-09-14T21:34:10.266Z,13.47
2022-09-14T21:36:40.958Z,13.45
2022-09-14T21:39:11.641Z,13.47
2022-09-14T21:41:41.727Z,13.48
2022-09-14T21:44:09.030Z,13.48
2022-09-14T21:46:37.127Z,13.43
2022-09-14T21:49:04.917Z,13.41
2022-09-14T21:51:35.106Z,13.42
2022-09-14T21:54:05.721Z,13.42
2022-09-14T21:56:35.436Z,13.46
2022-09-14T21:59:06.477Z,13.33
2022-09-14T22:01:34.189Z,13.28
2022-09-14T22:04:02.225Z,13.22
2022-09-14T22:06:29.984Z,13.20
2022-09-14T22:08:59.997Z,13.27
2022-09-14T22:11:39.149Z,13.20
2022-09-14T22:14:20.754Z,13.12
2022-09-14T22:16:50.587Z,13.13
2022-09-14T22:19:21.348Z,13.19
2022-09-14T22:21:49.015Z,13.12
2022-09-14T22:24:23.175Z,13.10
2022-09-14T22:26:50.435Z,13.18
2022-09-14T22:29:18.455Z,13.11
2022-09-14T22:31:45.872Z,13.21
2022-09-14T22:34:13.498Z,13.18
2022-09-14T22:36:40.950Z,13.20
2022-09-14T22:39:09.788Z,13.16
2022-09-14T22:41:39.683Z,13.15
2022-09-14T22:44:07.963Z,13.20
2022-09-14T22:46:36.036Z,13.19
2022-09-14T22:49:04.227Z,13.14
2022-09-14T22:51:31.456Z,13.11
2022-09-14T22:53:58.643Z,13.10
2022-09-14T22:56:29.154Z,13.08
2022-09-14T22:58:56.984Z,13.05
2022-09-14T23:01:30.370Z,12.98
2022-09-14T23:04:01.001Z,12.96
2022-09-14T23:06:29.968Z,12.98
2022-09-14T23:08:57.596Z,12.99
2022-09-14T23:11:24.717Z,12.97
2022-09-14T23:13:52.059Z,12.99
2022-09-14T23:16:22.281Z,12.98
2022-09-14T23:18:51.796Z,12.97
2022-09-14T23:21:19.623Z,12.99
2022-09-14T23:24:01.215Z,12.97
2022-09-14T23:26:29.021Z,12.95
2022-09-14T23:29:16.609Z,12.97
2022-09-14T23:31:43.863Z,12.98
2022-09-14T23:34:10.890Z,13.03
2022-09-14T23:36:38.857Z,12.95
2022-09-14T23:39:06.264Z,13.00
2022-09-14T23:41:33.361Z,12.99
2022-09-14T23:44:00.845Z,12.95
2022-09-14T23:46:28.164Z,12.91
2022-09-14T23:48:55.652Z,12.97
2022-09-14T23:51:22.917Z,12.93
2022-09-14T23:53:50.162Z,12.90
2022-09-14T23:56:17.454Z,12.95
2022-09-14T23:58:45.510Z,12.94
